Time;durP1;ratioP1;P1;durP2;ratioP2;P2;SDS_P1;SDS_P2;PMS_P1;PMS_P2;Temp;Humidity;BMP_temperature;BMP_pressure;BME280_temperature;BME280_humidity;BME280_pressure;Samples;Min_cycle;Max_cycle;Signal;HPM_P1;HPM_P2
2023/02/02 00:01:31;;;;;;;42.78;7.22;;;;;;;;;;5096732;28;20044;-69
2023/02/02 00:03:58;;;;;;;53.60;6.93;;;;;;;;;;5079288;28;20478;-69
2023/02/02 00:06:25;;;;;;;49.90;6.57;;;;;;;;;;5098164;28;20456;-69
2023/02/02 00:08:52;;;;;;;42.72;5.30;;;;;;;;;;5094411;28;20048;-68
2023/02/02 00:11:18;;;;;;;40.58;5.28;;;;;;;;;;5100080;28;20386;-69
2023/02/02 00:13:45;;;;;;;38.95;6.18;;;;;;;;;;5097297;28;20441;-68
2023/02/02 00:16:34;;;;;;;38.45;6.47;;;;;;;;;;5102553;28;20044;-69
2023/02/02 00:19:02;;;;;;;35.95;4.90;;;;;;;;;;5080398;28;20131;-69
2023/02/02 00:21:29;;;;;;;35.20;4.82;;;;;;;;;;5085723;28;20093;-69
2023/02/02 00:23:55;;;;;;;47.28;5.35;;;;;;;;;;5101390;28;20044;-69
2023/02/02 00:26:21;;;;;;;40.80;6.35;;;;;;;;;;5094784;28;20051;-69
2023/02/02 00:28:47;;;;;;;42.75;6.05;;;;;;;;;;5093733;28;20724;-69
2023/02/02 00:31:14;;;;;;;41.50;5.55;;;;;;;;;;5077975;28;20333;-69
2023/02/02 00:33:40;;;;;;;29.52;5.60;;;;;;;;;;5097158;28;20028;-69
2023/02/02 00:36:06;;;;;;;39.95;6.07;;;;;;;;;;5098053;28;20101;-69
2023/02/02 00:38:33;;;;;;;31.38;6.75;;;;;;;;;;5096876;28;20039;-68
2023/02/02 00:40:59;;;;;;;29.35;5.88;;;;;;;;;;5081921;28;20048;-69
2023/02/02 00:43:25;;;;;;;29.48;5.30;;;;;;;;;;5084283;28;20083;-69
2023/02/02 00:45:51;;;;;;;38.58;5.45;;;;;;;;;;5101615;28;20044;-69
2023/02/02 00:48:18;;;;;;;27.33;4.85;;;;;;;;;;5103081;28;20040;-69
2023/02/02 00:50:44;;;;;;;37.95;5.50;;;;;;;;;;5086022;28;20379;-69
2023/02/02 00:53:10;;;;;;;27.80;4.50;;;;;;;;;;5080173;28;20155;-69
2023/02/02 00:55:36;;;;;;;29.77;4.93;;;;;;;;;;5073473;28;20055;-68
2023/02/02 00:58:02;;;;;;;31.90;4.50;;;;;;;;;;5096403;28;20048;-68
2023/02/02 01:00:28;;;;;;;20.60;4.13;;;;;;;;;;5094442;28;20051;-68
2023/02/02 01:02:55;;;;;;;36.70;5.05;;;;;;;;;;5077295;28;20983;-68
2023/02/02 01:05:22;;;;;;;23.05;4.68;;;;;;;;;;5077795;28;20365;-68
2023/02/02 01:07:48;;;;;;;27.73;3.85;;;;;;;;;;5076885;28;20039;-68
2023/02/02 01:10:15;;;;;;;40.72;6.53;;;;;;;;;;5096563;28;20050;-68
2023/02/02 01:12:42;;;;;;;26.38;5.03;;;;;;;;;;5092236;28;20055;-68
2023/02/02 01:15:09;;;;;;;49.40;6.60;;;;;;;;;;5079740;28;20062;-68
2023/02/02 01:17:35;;;;;;;33.78;5.55;;;;;;;;;;5094248;28;20048;-68
2023/02/02 01:20:01;;;;;;;35.85;5.85;;;;;;;;;;5094315;28;20032;-68
2023/02/02 01:22:27;;;;;;;39.88;5.75;;;;;;;;;;5095199;28;20054;-69
2023/02/02 01:24:54;;;;;;;32.53;5.07;;;;;;;;;;5093144;28;20039;-68
2023/02/02 01:27:20;;;;;;;36.35;5.97;;;;;;;;;;5095791;28;20040;-68
2023/02/02 01:29:46;;;;;;;43.83;6.00;;;;;;;;;;5076108;28;20464;-68
2023/02/02 01:32:12;;;;;;;41.85;5.80;;;;;;;;;;5093291;28;20478;-68
2023/02/02 01:34:40;;;;;;;35.88;5.43;;;;;;;;;;5093548;28;20071;-68
2023/02/02 01:37:07;;;;;;;45.42;6.80;;;;;;;;;;5095996;28;20035;-68
2023/02/02 01:39:33;;;;;;;42.78;4.93;;;;;;;;;;5096032;28;20137;-68
2023/02/02 01:41:59;;;;;;;46.85;6.65;;;;;;;;;;5095305;28;20044;-68
2023/02/02 01:44:45;;;;;;;39.33;6.50;;;;;;;;;;5097648;27;20036;-69
2023/02/02 01:47:11;;;;;;;39.72;5.68;;;;;;;;;;5096533;27;21697;-68
2023/02/02 01:49:37;;;;;;;33.25;5.65;;;;;;;;;;5095603;28;20039;-68
2023/02/02 01:52:04;;;;;;;34.60;4.25;;;;;;;;;;5097545;28;20394;-68
2023/02/02 01:54:33;;;;;;;32.67;5.55;;;;;;;;;;5093787;28;20036;-68
2023/02/02 01:57:02;;;;;;;29.27;4.05;;;;;;;;;;5093770;28;20040;-68
2023/02/02 01:59:29;;;;;;;38.58;5.25;;;;;;;;;;5090534;27;20031;-69
2023/02/02 02:01:55;;;;;;;32.55;4.82;;;;;;;;;;5080253;28;20044;-69
2023/02/02 02:04:23;;;;;;;41.70;5.60;;;;;;;;;;5097314;28;20087;-69
2023/02/02 02:06:51;;;;;;;37.92;4.90;;;;;;;;;;5094799;28;20043;-69
2023/02/02 02:09:17;;;;;;;38.22;5.78;;;;;;;;;;5075438;28;20048;-69
2023/02/02 02:11:43;;;;;;;34.80;5.05;;;;;;;;;;5075619;28;20152;-69
2023/02/02 02:17:03;;;;;;;32.65;5.10;;;;;;;;;;5096228;28;20052;-69
2023/02/02 02:28:44;;;;;;;23.00;3.92;;;;;;;;;;5095682;28;20043;-69
2023/02/02 02:31:11;;;;;;;29.17;4.68;;;;;;;;;;5078925;28;20073;-69
2023/02/02 02:33:48;;;;;;;27.23;3.97;;;;;;;;;;5094776;28;20039;-69
2023/02/02 02:36:19;;;;;;;25.98;4.38;;;;;;;;;;5094683;28;20058;-69
2023/02/02 02:38:50;;;;;;;22.33;3.15;;;;;;;;;;5094849;28;20036;-69
2023/02/02 02:41:19;;;;;;;20.65;3.08;;;;;;;;;;5093852;28;20090;-69
2023/02/02 02:43:48;;;;;;;20.90;3.78;;;;;;;;;;5079046;28;20152;-69
2023/02/02 02:46:15;;;;;;;21.95;3.40;;;;;;;;;;5094255;28;20437;-69
2023/02/02 02:48:43;;;;;;;22.15;4.00;;;;;;;;;;5096268;28;20061;-69
2023/02/02 02:51:28;;;;;;;17.80;3.50;;;;;;;;;;5093856;28;20039;-70
2023/02/02 02:53:55;;;;;;;23.65;3.65;;;;;;;;;;5096722;28;20508;-70
2023/02/02 02:56:29;;;;;;;28.35;3.80;;;;;;;;;;5094629;28;20123;-70
2023/02/02 02:59:02;;;;;;;18.73;3.30;;;;;;;;;;5097496;28;20041;-70
2023/02/02 03:01:32;;;;;;;20.80;3.03;;;;;;;;;;5091501;28;20503;-70
2023/02/02 03:04:05;;;;;;;27.33;3.72;;;;;;;;;;5097608;28;20044;-70
2023/02/02 03:06:38;;;;;;;20.80;2.92;;;;;;;;;;5078154;28;20067;-70
2023/02/02 03:09:06;;;;;;;21.80;4.57;;;;;;;;;;5098096;28;20043;-70
2023/02/02 03:11:33;;;;;;;19.88;2.70;;;;;;;;;;5078741;28;20092;-70
2023/02/02 03:14:01;;;;;;;20.38;3.35;;;;;;;;;;5090579;28;20044;-70
2023/02/02 03:16:27;;;;;;;24.80;3.97;;;;;;;;;;5092492;28;20088;-70
2023/02/02 03:18:54;;;;;;;17.10;2.95;;;;;;;;;;5094609;28;20067;-70
2023/02/02 03:21:21;;;;;;;18.15;3.97;;;;;;;;;;5096745;28;20059;-70
2023/02/02 03:23:47;;;;;;;16.35;3.25;;;;;;;;;;5096732;28;20444;-70
2023/02/02 03:26:14;;;;;;;21.90;3.05;;;;;;;;;;5098130;28;20047;-70
2023/02/02 03:28:40;;;;;;;17.67;2.92;;;;;;;;;;5097870;28;20057;-70
2023/02/02 03:31:06;;;;;;;22.08;2.72;;;;;;;;;;5084904;28;20036;-70
2023/02/02 03:33:35;;;;;;;22.95;4.22;;;;;;;;;;5085928;28;20051;-70
2023/02/02 03:36:01;;;;;;;22.00;4.00;;;;;;;;;;5100117;28;20050;-70
2023/02/02 03:38:27;;;;;;;18.25;2.42;;;;;;;;;;5080736;28;20058;-70
2023/02/02 03:40:53;;;;;;;13.10;2.53;;;;;;;;;;5096701;28;20050;-70
2023/02/02 03:43:20;;;;;;;13.77;2.45;;;;;;;;;;5096560;28;20048;-70
2023/02/02 03:45:46;;;;;;;9.68;1.98;;;;;;;;;;5098922;28;20662;-70
2023/02/02 03:48:13;;;;;;;10.25;1.33;;;;;;;;;;5083910;28;20179;-70
2023/02/02 03:50:39;;;;;;;6.55;1.50;;;;;;;;;;5099642;28;20123;-70
2023/02/02 03:53:05;;;;;;;9.85;1.38;;;;;;;;;;5099688;28;20044;-70
2023/02/02 03:55:31;;;;;;;7.43;1.92;;;;;;;;;;5096920;28;20122;-70
2023/02/02 03:57:57;;;;;;;6.53;1.35;;;;;;;;;;5082440;28;20447;-70
2023/02/02 04:00:23;;;;;;;7.53;1.17;;;;;;;;;;5100908;28;20054;-70
2023/02/02 04:02:49;;;;;;;13.15;2.17;;;;;;;;;;5101624;28;20048;-70
2023/02/02 04:05:16;;;;;;;5.90;0.90;;;;;;;;;;5099748;28;20176;-70
2023/02/02 04:07:42;;;;;;;9.60;1.52;;;;;;;;;;5098719;28;20032;-70
2023/02/02 04:10:08;;;;;;;15.32;2.08;;;;;;;;;;5101924;28;20531;-70
2023/02/02 04:12:34;;;;;;;9.40;2.03;;;;;;;;;;5098555;28;20071;-70
2023/02/02 04:15:01;;;;;;;12.75;2.22;;;;;;;;;;5096164;28;20050;-70
2023/02/02 04:17:27;;;;;;;13.20;2.78;;;;;;;;;;5099370;28;20040;-70
2023/02/02 04:19:56;;;;;;;11.88;1.83;;;;;;;;;;5096932;28;20047;-70
2023/02/02 04:22:23;;;;;;;11.70;1.50;;;;;;;;;;5082203;28;20040;-70
2023/02/02 04:24:49;;;;;;;12.25;1.98;;;;;;;;;;5100684;28;20139;-70
2023/02/02 04:27:15;;;;;;;11.98;2.50;;;;;;;;;;5083626;28;20047;-70
2023/02/02 04:29:41;;;;;;;12.68;1.80;;;;;;;;;;5077490;28;20387;-70
2023/02/02 04:32:07;;;;;;;15.93;2.13;;;;;;;;;;5100348;28;20394;-70
2023/02/02 04:34:34;;;;;;;15.73;2.53;;;;;;;;;;5096561;28;20565;-70
2023/02/02 04:37:00;;;;;;;8.80;1.73;;;;;;;;;;5066530;28;20051;-70
2023/02/02 04:39:26;;;;;;;14.48;2.75;;;;;;;;;;5096536;28;20035;-70
2023/02/02 04:41:52;;;;;;;11.23;2.00;;;;;;;;;;5082679;28;20044;-70
2023/02/02 04:44:18;;;;;;;11.15;1.80;;;;;;;;;;5094971;28;20047;-70
2023/02/02 04:46:45;;;;;;;14.38;2.83;;;;;;;;;;5096948;28;21781;-70
2023/02/02 04:49:11;;;;;;;14.35;2.83;;;;;;;;;;5092826;28;20075;-70
2023/02/02 04:51:38;;;;;;;20.23;2.78;;;;;;;;;;5095978;28;20858;-70
2023/02/02 04:54:05;;;;;;;12.40;2.15;;;;;;;;;;5075928;28;20035;-70
2023/02/02 04:56:31;;;;;;;13.55;2.33;;;;;;;;;;5077690;28;20136;-70
2023/02/02 04:58:57;;;;;;;16.55;2.47;;;;;;;;;;5095843;28;20047;-70
2023/02/02 05:01:23;;;;;;;13.93;1.75;;;;;;;;;;5095589;28;20046;-70
2023/02/02 05:03:50;;;;;;;13.18;2.67;;;;;;;;;;5096488;28;20112;-70
2023/02/02 05:06:18;;;;;;;21.38;2.90;;;;;;;;;;5095022;28;20511;-70
2023/02/02 05:08:44;;;;;;;19.75;2.88;;;;;;;;;;5077791;28;20089;-70
2023/02/02 05:11:12;;;;;;;15.00;1.90;;;;;;;;;;5093275;28;20035;-70
2023/02/02 05:13:38;;;;;;;14.57;2.10;;;;;;;;;;5063869;28;20042;-70
2023/02/02 05:16:05;;;;;;;10.57;2.05;;;;;;;;;;5095033;28;20039;-70
2023/02/02 05:18:31;;;;;;;15.43;1.80;;;;;;;;;;5059072;28;20104;-70
2023/02/02 05:20:59;;;;;;;13.80;2.03;;;;;;;;;;5092948;28;20039;-70
2023/02/02 05:23:26;;;;;;;14.05;1.98;;;;;;;;;;5093595;28;20124;-70
2023/02/02 05:25:52;;;;;;;13.88;1.67;;;;;;;;;;5078833;28;20058;-70
2023/02/02 05:28:19;;;;;;;19.08;2.30;;;;;;;;;;5091254;28;20782;-70
2023/02/02 05:30:45;;;;;;;15.82;2.55;;;;;;;;;;5079366;28;20487;-70
2023/02/02 05:33:11;;;;;;;20.85;2.47;;;;;;;;;;5095830;28;20511;-70
2023/02/02 05:35:37;;;;;;;13.05;1.88;;;;;;;;;;5098793;28;20040;-70
2023/02/02 05:38:03;;;;;;;14.35;2.00;;;;;;;;;;5079305;28;20047;-70
2023/02/02 05:40:30;;;;;;;12.70;1.95;;;;;;;;;;5092479;28;20058;-70
2023/02/02 05:42:56;;;;;;;15.18;1.85;;;;;;;;;;5095782;28;20087;-70
2023/02/02 05:45:22;;;;;;;14.18;1.67;;;;;;;;;;5095439;28;20122;-70
2023/02/02 05:47:48;;;;;;;10.43;1.95;;;;;;;;;;5079124;28;20527;-70
2023/02/02 05:50:15;;;;;;;10.25;2.30;;;;;;;;;;5072210;28;20115;-70
2023/02/02 05:52:42;;;;;;;9.60;1.77;;;;;;;;;;5073292;28;20040;-71
2023/02/02 05:55:09;;;;;;;17.05;2.25;;;;;;;;;;5076761;28;20134;-70
2023/02/02 05:57:35;;;;;;;12.15;2.47;;;;;;;;;;5074795;28;20039;-70
2023/02/02 06:00:02;;;;;;;11.93;1.90;;;;;;;;;;5093969;28;20495;-70
2023/02/02 06:02:28;;;;;;;18.95;2.15;;;;;;;;;;5092630;28;20053;-70
2023/02/02 06:04:54;;;;;;;12.13;1.83;;;;;;;;;;5075957;28;20105;-70
2023/02/02 06:07:20;;;;;;;12.05;1.92;;;;;;;;;;5075182;28;20436;-70
2023/02/02 06:09:46;;;;;;;12.93;1.85;;;;;;;;;;5096016;28;20403;-70
2023/02/02 06:12:12;;;;;;;21.08;2.85;;;;;;;;;;5095215;28;20129;-70
2023/02/02 06:14:38;;;;;;;14.15;2.05;;;;;;;;;;5094247;28;20040;-69
2023/02/02 06:17:05;;;;;;;11.45;1.90;;;;;;;;;;5097648;28;20044;-69
2023/02/02 06:19:31;;;;;;;11.35;1.88;;;;;;;;;;5071682;28;20044;-70
2023/02/02 06:21:58;;;;;;;12.13;2.17;;;;;;;;;;5076535;28;20122;-70
2023/02/02 06:24:24;;;;;;;17.85;2.92;;;;;;;;;;5091303;28;20051;-69
2023/02/02 06:26:50;;;;;;;16.80;2.00;;;;;;;;;;5092883;28;20040;-69
2023/02/02 06:29:16;;;;;;;19.10;2.35;;;;;;;;;;5071995;28;20078;-68
2023/02/02 06:31:42;;;;;;;14.40;1.85;;;;;;;;;;5095003;28;20097;-69
2023/02/02 06:34:12;;;;;;;9.73;2.00;;;;;;;;;;5094753;28;20055;-69
2023/02/02 06:36:38;;;;;;;14.35;3.05;;;;;;;;;;5078437;28;20456;-69
2023/02/02 06:39:06;;;;;;;13.90;2.30;;;;;;;;;;5099228;28;20040;-70
2023/02/02 06:41:33;;;;;;;14.18;2.15;;;;;;;;;;5101419;28;20123;-69
2023/02/02 06:43:59;;;;;;;11.13;1.63;;;;;;;;;;5103981;28;20039;-70
2023/02/02 06:46:25;;;;;;;6.22;1.58;;;;;;;;;;5080084;28;20048;-69
2023/02/02 06:48:52;;;;;;;15.18;2.83;;;;;;;;;;5095118;28;20066;-69
2023/02/02 06:51:18;;;;;;;15.43;2.67;;;;;;;;;;5092903;28;20157;-70
2023/02/02 06:53:46;;;;;;;13.15;2.47;;;;;;;;;;5094327;28;20036;-72
2023/02/02 06:56:13;;;;;;;14.68;3.03;;;;;;;;;;5094802;28;20044;-71
2023/02/02 06:58:39;;;;;;;13.32;2.40;;;;;;;;;;5099033;28;20077;-70
2023/02/02 07:01:06;;;;;;;17.30;2.05;;;;;;;;;;5080754;28;20059;-70
2023/02/02 07:03:33;;;;;;;14.57;2.10;;;;;;;;;;5081109;28;20058;-70
2023/02/02 07:05:59;;;;;;;14.82;2.72;;;;;;;;;;5097966;28;20048;-70
2023/02/02 07:08:25;;;;;;;15.30;2.45;;;;;;;;;;5097268;28;20134;-71
2023/02/02 07:10:52;;;;;;;16.98;4.00;;;;;;;;;;5100908;28;20047;-71
2023/02/02 07:13:18;;;;;;;11.20;4.05;;;;;;;;;;5080135;28;20172;-70
2023/02/02 07:15:44;;;;;;;16.83;4.35;;;;;;;;;;5101270;28;20063;-71
2023/02/02 07:18:10;;;;;;;16.45;4.25;;;;;;;;;;5099202;28;20448;-70
2023/02/02 07:20:36;;;;;;;10.43;3.33;;;;;;;;;;5097807;28;20530;-70
2023/02/02 07:23:03;;;;;;;12.85;2.92;;;;;;;;;;5096129;28;20043;-70
2023/02/02 07:25:29;;;;;;;12.80;4.00;;;;;;;;;;5097403;28;20032;-70
2023/02/02 07:27:55;;;;;;;11.60;3.75;;;;;;;;;;5079692;28;20043;-70
2023/02/02 07:30:21;;;;;;;11.13;4.63;;;;;;;;;;5095560;28;20120;-71
2023/02/02 07:32:48;;;;;;;15.25;5.43;;;;;;;;;;5097624;28;21406;-71
2023/02/02 07:35:15;;;;;;;16.25;5.43;;;;;;;;;;5100118;28;20052;-70
2023/02/02 07:37:42;;;;;;;19.30;5.63;;;;;;;;;;5097463;28;20456;-70
2023/02/02 07:40:09;;;;;;;15.70;4.70;;;;;;;;;;5073568;28;20612;-70
2023/02/02 07:42:35;;;;;;;14.00;4.30;;;;;;;;;;5080239;28;20055;-70
2023/02/02 07:45:01;;;;;;;16.30;3.65;;;;;;;;;;5075890;28;20493;-70
2023/02/02 07:47:28;;;;;;;17.90;3.65;;;;;;;;;;5078454;28;20101;-68
2023/02/02 07:49:54;;;;;;;9.93;3.80;;;;;;;;;;5078154;28;20126;-73
2023/02/02 07:52:20;;;;;;;12.48;2.60;;;;;;;;;;5075042;28;20132;-69
2023/02/02 07:54:46;;;;;;;11.57;3.17;;;;;;;;;;5078878;28;20036;-74
2023/02/02 07:57:12;;;;;;;11.13;3.85;;;;;;;;;;5077329;28;20044;-75
2023/02/02 07:59:38;;;;;;;11.00;3.28;;;;;;;;;;5074425;28;20040;-74
2023/02/02 08:02:05;;;;;;;14.13;5.13;;;;;;;;;;5081677;28;20064;-73
2023/02/02 08:04:33;;;;;;;18.10;6.18;;;;;;;;;;5077072;28;20048;-73
2023/02/02 08:06:59;;;;;;;20.20;7.72;;;;;;;;;;5075846;28;20043;-73
2023/02/02 08:09:25;;;;;;;16.40;8.10;;;;;;;;;;5080239;28;20503;-73
2023/02/02 08:11:51;;;;;;;19.77;7.50;;;;;;;;;;5077875;28;20059;-73
2023/02/02 08:14:17;;;;;;;18.58;8.60;;;;;;;;;;5075590;28;20080;-74
2023/02/02 08:16:44;;;;;;;18.15;7.82;;;;;;;;;;5074999;28;20048;-73
2023/02/02 08:19:10;;;;;;;23.77;7.53;;;;;;;;;;5078759;28;20063;-73
2023/02/02 08:21:36;;;;;;;18.45;6.50;;;;;;;;;;5075496;28;20100;-74
2023/02/02 08:24:04;;;;;;;20.77;7.28;;;;;;;;;;5077149;28;20059;-72
2023/02/02 08:26:30;;;;;;;18.92;6.90;;;;;;;;;;5076750;28;20199;-74
2023/02/02 08:28:58;;;;;;;19.55;6.32;;;;;;;;;;5060070;28;20055;-75
2023/02/02 08:31:28;;;;;;;17.50;6.10;;;;;;;;;;5077915;28;20433;-74
2023/02/02 08:33:54;;;;;;;15.15;5.68;;;;;;;;;;5076020;28;20059;-70
2023/02/02 08:36:22;;;;;;;16.95;5.32;;;;;;;;;;5077960;28;20163;-73
2023/02/02 08:38:48;;;;;;;13.40;4.53;;;;;;;;;;5076499;28;20046;-74
2023/02/02 08:41:16;;;;;;;11.00;4.57;;;;;;;;;;5076084;28;20079;-75
2023/02/02 08:43:42;;;;;;;11.45;3.50;;;;;;;;;;5077624;28;20046;-71
2023/02/02 08:46:10;;;;;;;12.48;3.95;;;;;;;;;;5077819;28;20048;-71
2023/02/02 08:48:36;;;;;;;11.80;3.50;;;;;;;;;;5076089;28;20048;-71
2023/02/02 08:51:02;;;;;;;15.00;4.82;;;;;;;;;;5076591;28;20040;-71
2023/02/02 08:53:29;;;;;;;14.57;4.00;;;;;;;;;;5074785;28;20189;-71
2023/02/02 08:55:59;;;;;;;17.40;4.68;;;;;;;;;;5074865;28;20037;-71
2023/02/02 08:58:25;;;;;;;14.13;4.78;;;;;;;;;;5079307;28;20048;-70
2023/02/02 09:00:52;;;;;;;15.07;5.47;;;;;;;;;;5076331;28;20041;-71
2023/02/02 09:03:18;;;;;;;16.02;5.88;;;;;;;;;;5076916;28;20051;-71
2023/02/02 09:05:44;;;;;;;17.77;6.45;;;;;;;;;;5074567;28;20119;-71
2023/02/02 09:08:10;;;;;;;14.75;5.57;;;;;;;;;;5075962;28;20196;-71
2023/02/02 09:10:37;;;;;;;12.43;5.80;;;;;;;;;;5077822;28;20043;-70
2023/02/02 09:13:03;;;;;;;14.63;6.00;;;;;;;;;;5077616;28;20051;-71
2023/02/02 09:15:30;;;;;;;16.50;7.20;;;;;;;;;;5075658;28;20074;-69
2023/02/02 09:17:56;;;;;;;18.27;7.35;;;;;;;;;;5072674;28;20132;-71
2023/02/02 09:20:23;;;;;;;16.13;7.00;;;;;;;;;;5072742;28;20039;-71
2023/02/02 09:22:49;;;;;;;14.02;5.70;;;;;;;;;;5076866;28;20051;-71
2023/02/02 09:25:15;;;;;;;14.90;4.75;;;;;;;;;;5077137;28;20048;-71
2023/02/02 09:27:41;;;;;;;17.45;5.30;;;;;;;;;;5076980;28;20044;-71
2023/02/02 09:30:08;;;;;;;14.52;5.20;;;;;;;;;;5075375;28;20114;-70
2023/02/02 09:32:35;;;;;;;10.38;4.50;;;;;;;;;;5074269;28;20494;-70
2023/02/02 09:35:01;;;;;;;11.85;4.50;;;;;;;;;;5076164;28;20036;-70
2023/02/02 09:37:27;;;;;;;15.52;4.70;;;;;;;;;;5075385;28;20079;-70
2023/02/02 09:39:53;;;;;;;20.05;8.02;;;;;;;;;;5076140;28;20189;-71
2023/02/02 09:42:32;;;;;;;10.32;4.30;;;;;;;;;;5097436;28;20047;-71
2023/02/02 09:45:05;;;;;;;9.32;3.97;;;;;;;;;;5078318;28;20494;-71
2023/02/02 09:47:39;;;;;;;10.93;3.55;;;;;;;;;;5096997;28;20036;-71
2023/02/02 09:50:10;;;;;;;11.35;3.33;;;;;;;;;;5097498;28;20039;-71
2023/02/02 09:52:37;;;;;;;8.82;3.75;;;;;;;;;;5098010;28;20044;-71
2023/02/02 09:55:13;;;;;;;8.82;3.60;;;;;;;;;;5098906;28;20164;-71
2023/02/02 09:57:42;;;;;;;14.15;4.07;;;;;;;;;;5094828;28;20052;-70
2023/02/02 10:00:20;;;;;;;13.75;5.40;;;;;;;;;;5093230;28;20130;-71
2023/02/02 10:02:48;;;;;;;12.02;3.92;;;;;;;;;;5076680;28;20495;-74
2023/02/02 10:05:16;;;;;;;11.82;4.50;;;;;;;;;;5093118;28;20044;-74
2023/02/02 10:07:44;;;;;;;11.15;3.95;;;;;;;;;;5095131;28;20113;-74
2023/02/02 10:10:15;;;;;;;12.05;2.72;;;;;;;;;;5096377;28;20689;-74
2023/02/02 10:12:46;;;;;;;7.60;2.90;;;;;;;;;;5094551;28;20128;-74
2023/02/02 10:15:25;;;;;;;12.18;2.78;;;;;;;;;;5077011;28;20499;-73
2023/02/02 10:17:55;;;;;;;11.52;3.30;;;;;;;;;;5095367;28;20535;-74
2023/02/02 10:20:27;;;;;;;7.38;2.80;;;;;;;;;;5093130;28;20453;-78
2023/02/02 10:22:56;;;;;;;7.32;2.00;;;;;;;;;;5095042;28;20048;-74
2023/02/02 10:25:26;;;;;;;7.85;2.00;;;;;;;;;;5094632;28;20059;-76
2023/02/02 10:27:59;;;;;;;5.40;1.75;;;;;;;;;;5101165;28;20077;-75
2023/02/02 10:30:35;;;;;;;10.73;1.60;;;;;;;;;;5067707;28;20036;-73
2023/02/02 10:33:06;;;;;;;16.23;2.20;;;;;;;;;;5069881;28;20131;-73
2023/02/02 10:35:42;;;;;;;14.25;2.10;;;;;;;;;;5080694;28;20202;-73
2023/02/02 10:38:27;;;;;;;7.18;1.52;;;;;;;;;;5100250;28;20056;-74
2023/02/02 10:40:59;;;;;;;11.05;1.77;;;;;;;;;;5099997;28;20051;-73
2023/02/02 10:43:44;;;;;;;10.77;2.00;;;;;;;;;;5100202;28;20092;-74
2023/02/02 10:46:14;;;;;;;10.90;1.77;;;;;;;;;;5102197;28;20051;-74
2023/02/02 10:48:41;;;;;;;6.68;1.65;;;;;;;;;;5100457;28;20046;-74
2023/02/02 10:51:19;;;;;;;9.63;1.67;;;;;;;;;;5099700;28;20043;-74
2023/02/02 10:53:50;;;;;;;14.25;1.58;;;;;;;;;;5095391;28;20597;-74
2023/02/02 10:56:17;;;;;;;12.48;1.90;;;;;;;;;;5098631;28;20070;-74
2023/02/02 10:59:00;;;;;;;12.45;1.98;;;;;;;;;;5102718;28;20054;-75
2023/02/02 11:01:26;;;;;;;13.93;2.47;;;;;;;;;;5099292;28;20048;-74
2023/02/02 11:06:48;;;;;;;13.30;2.25;;;;;;;;;;5099886;28;20090;-74
2023/02/02 11:06:49;;;;;;;10.43;1.70;;;;;;;;;;5078399;28;20389;-74
2023/02/02 11:09:17;;;;;;;13.50;2.00;;;;;;;;;;5095555;28;20055;-73
2023/02/02 11:11:45;;;;;;;10.40;2.00;;;;;;;;;;5097380;28;20048;-73
2023/02/02 11:14:17;;;;;;;9.27;1.58;;;;;;;;;;5101121;28;20079;-74
2023/02/02 11:16:44;;;;;;;10.77;1.85;;;;;;;;;;5078656;28;20075;-74
2023/02/02 11:19:16;;;;;;;5.18;1.75;;;;;;;;;;5096875;28;20047;-74
2023/02/02 11:21:46;;;;;;;8.88;2.33;;;;;;;;;;5080189;28;20522;-74
2023/02/02 11:24:21;;;;;;;6.88;2.42;;;;;;;;;;5062498;28;20062;-74
2023/02/02 11:26:49;;;;;;;12.00;2.90;;;;;;;;;;5080123;28;20040;-73
2023/02/02 11:29:19;;;;;;;14.90;2.05;;;;;;;;;;5080710;28;20102;-73
2023/02/02 11:31:46;;;;;;;11.13;2.67;;;;;;;;;;5098523;28;20486;-74
2023/02/02 11:34:13;;;;;;;11.93;2.70;;;;;;;;;;5099075;28;20460;-73
2023/02/02 11:36:39;;;;;;;10.50;2.42;;;;;;;;;;5099668;28;20072;-74
2023/02/02 11:39:15;;;;;;;8.23;2.92;;;;;;;;;;5098562;28;20052;-74
2023/02/02 11:41:42;;;;;;;16.10;3.13;;;;;;;;;;5066040;28;20412;-73
2023/02/02 11:44:13;;;;;;;10.82;2.30;;;;;;;;;;5093311;28;20567;-73
2023/02/02 11:46:39;;;;;;;8.45;2.65;;;;;;;;;;5101074;28;20032;-74
2023/02/02 11:49:08;;;;;;;10.63;3.15;;;;;;;;;;5096924;28;20499;-72
2023/02/02 11:51:34;;;;;;;11.00;2.95;;;;;;;;;;5101061;28;20452;-73
2023/02/02 11:54:03;;;;;;;11.77;3.20;;;;;;;;;;5102015;28;20040;-73
2023/02/02 11:56:30;;;;;;;12.82;3.42;;;;;;;;;;5097558;28;20078;-72
2023/02/02 11:59:00;;;;;;;9.90;3.15;;;;;;;;;;5095849;28;20490;-72
2023/02/02 12:01:27;;;;;;;11.18;3.10;;;;;;;;;;5099085;28;20052;-71
2023/02/02 12:03:55;;;;;;;8.52;3.47;;;;;;;;;;5095298;28;20040;-72
2023/02/02 12:06:23;;;;;;;10.57;3.88;;;;;;;;;;5097467;28;20055;-72
2023/02/02 12:08:49;;;;;;;12.30;4.03;;;;;;;;;;5076850;28;20048;-72
2023/02/02 12:11:25;;;;;;;12.70;4.20;;;;;;;;;;5095925;28;20032;-72
2023/02/02 12:13:59;;;;;;;13.60;4.13;;;;;;;;;;5097659;28;20181;-73
2023/02/02 12:16:37;;;;;;;9.93;4.05;;;;;;;;;;5098496;28;20432;-72
2023/02/02 12:19:30;;;;;;;13.07;4.07;;;;;;;;;;5078115;28;20039;-72
2023/02/02 12:22:05;;;;;;;14.07;4.50;;;;;;;;;;5096401;28;20101;-72
2023/02/02 12:24:35;;;;;;;11.27;5.25;;;;;;;;;;5081766;28;20071;-72
2023/02/02 12:27:07;;;;;;;13.65;4.47;;;;;;;;;;5096739;28;20499;-72
2023/02/02 12:29:33;;;;;;;12.75;5.35;;;;;;;;;;5098176;28;20130;-72
2023/02/02 12:32:17;;;;;;;13.98;4.53;;;;;;;;;;5093673;28;20036;-72
2023/02/02 12:34:56;;;;;;;12.52;4.15;;;;;;;;;;5098367;28;20086;-72
2023/02/02 12:37:31;;;;;;;11.75;4.35;;;;;;;;;;5081222;28;20048;-72
2023/02/02 12:40:06;;;;;;;12.77;4.63;;;;;;;;;;5096498;28;20464;-72
2023/02/02 12:42:44;;;;;;;9.63;4.18;;;;;;;;;;5101906;28;20120;-73
2023/02/02 12:45:27;;;;;;;9.80;4.60;;;;;;;;;;5109548;28;20042;-74
2023/02/02 12:48:11;;;;;;;13.13;5.35;;;;;;;;;;5105702;28;20044;-74
2023/02/02 12:50:53;;;;;;;10.25;4.47;;;;;;;;;;5082726;28;20047;-74
2023/02/02 12:53:19;;;;;;;11.02;5.00;;;;;;;;;;5108428;28;20100;-74
2023/02/02 12:55:50;;;;;;;13.50;5.45;;;;;;;;;;5108308;28;20047;-74
2023/02/02 12:58:16;;;;;;;14.57;5.53;;;;;;;;;;5101661;28;20379;-73
2023/02/02 13:00:55;;;;;;;13.77;5.72;;;;;;;;;;5090562;28;20120;-74
2023/02/02 13:03:38;;;;;;;17.38;6.45;;;;;;;;;;5086370;28;20562;-74
2023/02/02 13:06:10;;;;;;;17.83;8.63;;;;;;;;;;5103316;28;20046;-74
2023/02/02 13:08:43;;;;;;;40.55;14.27;;;;;;;;;;5103508;28;20094;-73
2023/02/02 13:11:28;;;;;;;68.75;23.30;;;;;;;;;;5105875;28;20055;-73
2023/02/02 13:14:07;;;;;;;72.05;23.13;;;;;;;;;;5095241;28;20121;-73
2023/02/02 13:16:35;;;;;;;72.03;22.70;;;;;;;;;;5094987;28;20062;-73
2023/02/02 13:19:07;;;;;;;40.08;13.98;;;;;;;;;;5077615;28;20055;-73
2023/02/02 13:21:35;;;;;;;28.80;10.60;;;;;;;;;;5104161;28;20032;-73
2023/02/02 13:24:02;;;;;;;24.88;9.20;;;;;;;;;;5096295;28;20052;-73
2023/02/02 13:26:34;;;;;;;34.85;9.60;;;;;;;;;;5082641;28;20048;-74
2023/02/02 13:29:05;;;;;;;33.45;10.20;;;;;;;;;;5091425;28;20048;-73
2023/02/02 13:31:35;;;;;;;42.08;11.85;;;;;;;;;;5092394;28;20044;-73
2023/02/02 13:34:17;;;;;;;37.97;12.77;;;;;;;;;;5074386;28;20487;-72
2023/02/02 13:36:46;;;;;;;53.13;15.68;;;;;;;;;;5102607;28;20040;-72
2023/02/02 13:39:20;;;;;;;61.00;18.15;;;;;;;;;;5074550;28;20040;-73
2023/02/02 13:41:47;;;;;;;62.03;16.10;;;;;;;;;;5099727;28;20052;-73
2023/02/02 13:44:24;;;;;;;75.38;17.55;;;;;;;;;;5098197;28;20490;-73
2023/02/02 13:46:50;;;;;;;65.18;18.02;;;;;;;;;;5099764;28;20036;-72
2023/02/02 13:49:18;;;;;;;58.53;17.85;;;;;;;;;;5082760;28;20078;-72
2023/02/02 13:51:53;;;;;;;68.38;18.35;;;;;;;;;;5096011;28;20062;-71
2023/02/02 13:54:30;;;;;;;80.13;19.38;;;;;;;;;;5083380;28;20770;-72
2023/02/02 13:56:57;;;;;;;57.25;17.15;;;;;;;;;;5081520;28;20066;-73
2023/02/02 13:59:39;;;;;;;68.07;17.20;;;;;;;;;;5085174;28;20055;-69
2023/02/02 14:02:14;;;;;;;59.40;15.55;;;;;;;;;;5101313;28;20035;-72
2023/02/02 14:04:40;;;;;;;71.65;15.68;;;;;;;;;;5074503;28;20075;-71
2023/02/02 14:07:06;;;;;;;64.75;16.17;;;;;;;;;;5097593;28;20044;-71
2023/02/02 14:09:34;;;;;;;60.78;14.43;;;;;;;;;;5104936;28;20509;-72
2023/02/02 14:12:02;;;;;;;64.68;15.82;;;;;;;;;;5104019;28;20141;-72
2023/02/02 14:14:35;;;;;;;54.42;13.75;;;;;;;;;;5096283;28;20055;-72
2023/02/02 14:17:02;;;;;;;49.70;12.95;;;;;;;;;;5093248;28;20042;-72
2023/02/02 14:19:28;;;;;;;48.00;12.60;;;;;;;;;;5093798;28;20403;-72
2023/02/02 14:21:59;;;;;;;51.35;12.77;;;;;;;;;;5095272;28;20480;-72
2023/02/02 14:24:25;;;;;;;52.55;14.45;;;;;;;;;;5097101;28;20367;-72
2023/02/02 14:26:55;;;;;;;42.88;10.70;;;;;;;;;;5077607;28;20054;-72
2023/02/02 14:29:28;;;;;;;37.63;10.75;;;;;;;;;;5098753;28;20487;-72
2023/02/02 14:31:56;;;;;;;46.58;10.75;;;;;;;;;;5082019;28;20079;-72
2023/02/02 14:34:29;;;;;;;42.60;11.63;;;;;;;;;;5096983;28;20028;-72
2023/02/02 14:37:13;;;;;;;52.77;12.53;;;;;;;;;;5101799;28;20414;-72
2023/02/02 14:39:49;;;;;;;44.40;11.77;;;;;;;;;;5099609;28;20149;-72
2023/02/02 14:45:09;;;;;;;66.32;14.40;;;;;;;;;;5093521;28;20449;-73
2023/02/02 14:47:45;;;;;;;48.33;12.45;;;;;;;;;;5092119;28;20032;-72
2023/02/02 14:50:23;;;;;;;42.15;10.85;;;;;;;;;;5095236;28;20556;-72
2023/02/02 14:52:56;;;;;;;49.60;10.00;;;;;;;;;;5095629;28;20089;-72
2023/02/02 14:55:22;;;;;;;27.70;8.25;;;;;;;;;;5093803;28;20046;-72